TLPC/SLU METAR and TAF weather

Enter ICAO airport designator
Station Type Date Time Source
TLPC METAR 2021/09/23 18:00 UTC NOAA

TLPC 231800Z 25005KT 9999 -SHRA FEW020CB BKN025 30/25 Q1012 NOSIG


Station Type Date Time Source
TLPC Decoded METAR 2021/09/23 18:00 UTC NOAA

Vigie, Saint Lucia (TLPC) 14-01N 061-00W 2M
Sep 23, 2021 - 02:00 PM EDT / 2021.09.23 1800 UTC
Wind: from the WSW (250 degrees) at 6 MPH (5 KT):0
Visibility: greater than 7 mile(s):0
Sky conditions: mostly cloudy
Weather: light rain showers; Cumulonimbus clouds observed
Temperature: 86 F (30 C)
Heat index: 96.8 F (36.0 C):1
Dew Point: 77 F (25 C)
Relative Humidity: 74%
Pressure (altimeter): 29.88 in. Hg (1012 hPa)
ob: TLPC 231800Z 25005KT 9999 -SHRA FEW020CB BKN025 30/25 Q1012 NOSIG
cycle: 18

Station Type Date Time Source
TLPC TAF 2021/09/23 18:36 UTC NOAA

TAF TAF TLPC 231733Z 2318/2418 12007KT 9999 SCT026 PROB30
TEMPO 2320/2400 SHRA FEW016CB

Example: see airport list